createdAt,value
2019-02-17T00:01:07.715Z,35.38
2019-02-17T00:02:12.157Z,36.90
2019-02-17T00:03:16.426Z,36.75
2019-02-17T00:04:20.685Z,39.90
2019-02-17T00:05:24.687Z,45.33
2019-02-17T00:06:28.618Z,37.83
2019-02-17T00:07:32.546Z,44.00
2019-02-17T00:08:36.486Z,43.68
2019-02-17T00:09:40.416Z,43.60
2019-02-17T00:10:44.684Z,44.30
2019-02-17T00:11:48.855Z,47.70
2019-02-17T00:12:52.784Z,46.55
2019-02-17T00:13:56.838Z,50.58
2019-02-17T00:15:01.100Z,58.75
2019-02-17T00:16:05.101Z,47.90
2019-02-17T00:17:08.951Z,54.95
2019-02-17T00:18:12.806Z,60.80
2019-02-17T00:19:16.750Z,53.33
2019-02-17T00:20:20.754Z,69.47
2019-02-17T00:21:24.956Z,60.48
2019-02-17T00:22:29.160Z,55.70
2019-02-17T00:23:33.051Z,56.85
2019-02-17T00:24:37.270Z,55.78
2019-02-17T00:25:41.477Z,52.15
2019-02-17T00:26:45.732Z,55.20
2019-02-17T00:27:49.662Z,52.48
2019-02-17T00:28:59.539Z,60.75
2019-02-17T00:29:59.541Z,61.48
2019-02-17T00:31:03.832Z,48.33
2019-02-17T00:32:07.766Z,44.77
2019-02-17T00:33:11.784Z,45.25
2019-02-17T00:34:15.803Z,53.80
2019-02-17T00:35:19.973Z,58.48
2019-02-17T00:36:23.979Z,48.10
2019-02-17T00:37:27.906Z,43.52
2019-02-17T00:38:32.225Z,43.40
2019-02-17T00:39:36.351Z,48.23
2019-02-17T00:40:40.369Z,45.35
2019-02-17T00:41:44.368Z,44.03
2019-02-17T00:42:48.370Z,48.08
2019-02-17T00:43:52.218Z,42.43
2019-02-17T00:44:56.092Z,41.70
2019-02-17T00:46:00.314Z,40.43
2019-02-17T00:47:04.867Z,40.60
2019-02-17T00:48:08.789Z,38.85
2019-02-17T00:49:12.747Z,42.67
2019-02-17T00:50:16.749Z,53.30
2019-02-17T00:51:20.682Z,53.10
2019-02-17T00:52:24.943Z,50.67
2019-02-17T00:53:29.038Z,60.78
2019-02-17T00:54:33.053Z,52.70
2019-02-17T00:55:37.509Z,59.03
2019-02-17T00:56:41.513Z,52.70
2019-02-17T00:57:45.690Z,51.68
2019-02-17T00:58:49.618Z,48.75
2019-02-17T00:59:53.896Z,45.30
2019-02-17T01:00:58.073Z,40.75
2019-02-17T01:02:02.317Z,39.40
2019-02-17T01:03:06.318Z,41.53
2019-02-17T01:04:10.570Z,37.78
2019-02-17T01:05:14.836Z,36.90
2019-02-17T01:06:19.005Z,36.40
2019-02-17T01:07:23.258Z,36.23
2019-02-17T01:08:27.759Z,37.33
2019-02-17T01:09:31.771Z,35.65
2019-02-17T01:10:35.967Z,34.63
2019-02-17T01:11:40.174Z,38.13
2019-02-17T01:12:44.040Z,35.68
2019-02-17T01:13:48.051Z,36.00
2019-02-17T01:14:52.364Z,38.88
2019-02-17T01:15:56.405Z,39.27
2019-02-17T01:17:00.419Z,39.10
2019-02-17T01:18:04.689Z,42.55
2019-02-17T01:19:09.572Z,41.00
2019-02-17T01:20:13.814Z,38.05
2019-02-17T01:21:17.751Z,48.15
2019-02-17T01:22:21.895Z,45.38
2019-02-17T01:23:26.232Z,45.43
2019-02-17T01:24:30.425Z,36.98
2019-02-17T01:25:34.690Z,35.75
2019-02-17T01:26:38.949Z,32.83
2019-02-17T01:27:43.203Z,34.55
2019-02-17T01:28:47.787Z,28.23
2019-02-17T01:29:52.080Z,33.20
2019-02-17T01:30:56.099Z,31.52
2019-02-17T01:32:00.385Z,30.27
2019-02-17T01:33:04.729Z,31.90
2019-02-17T01:34:10.865Z,35.40
2019-02-17T01:35:14.872Z,27.13
2019-02-17T01:36:18.898Z,30.32
2019-02-17T01:37:23.186Z,31.12
2019-02-17T01:38:27.206Z,30.50
2019-02-17T01:39:31.208Z,31.75
2019-02-17T01:40:35.226Z,32.10
2019-02-17T01:41:39.234Z,37.53
2019-02-17T01:42:43.252Z,34.53
2019-02-17T01:43:47.470Z,30.40
2019-02-17T01:44:51.485Z,33.42
2019-02-17T01:45:55.517Z,33.58
2019-02-17T01:46:59.451Z,33.42
2019-02-17T01:48:04.138Z,32.80
2019-02-17T01:49:08.408Z,31.75
2019-02-17T01:50:12.769Z,39.18
2019-02-17T01:51:17.008Z,32.50
2019-02-17T01:52:21.214Z,33.05
2019-02-17T01:53:25.236Z,37.25
2019-02-17T01:54:29.166Z,36.35
2019-02-17T01:55:33.182Z,36.25
2019-02-17T01:56:37.136Z,41.98
2019-02-17T01:57:41.533Z,40.40
2019-02-17T01:58:46.073Z,38.80
2019-02-17T01:59:50.017Z,37.38
2019-02-17T02:00:53.951Z,36.17
2019-02-17T02:01:57.900Z,36.73
2019-02-17T02:03:01.836Z,47.35
2019-02-17T02:04:05.929Z,41.23
2019-02-17T02:05:10.041Z,46.37
2019-02-17T02:06:14.173Z,39.58
2019-02-17T02:07:18.454Z,51.37
2019-02-17T02:08:22.762Z,39.67
2019-02-17T02:09:27.070Z,42.30
2019-02-17T02:10:31.438Z,50.58
2019-02-17T02:11:35.386Z,50.78
2019-02-17T02:12:39.794Z,48.75
2019-02-17T02:13:44.097Z,46.42
2019-02-17T02:14:48.507Z,56.13
2019-02-17T02:15:52.451Z,47.15
2019-02-17T02:16:56.474Z,46.83
2019-02-17T02:18:00.415Z,49.83
2019-02-17T02:19:04.528Z,53.30
2019-02-17T02:20:09.997Z,49.70
2019-02-17T02:21:13.938Z,49.15
2019-02-17T02:22:17.810Z,52.25
2019-02-17T02:23:22.094Z,54.25
2019-02-17T02:24:26.035Z,53.05
2019-02-17T02:25:30.362Z,52.25
2019-02-17T02:26:34.671Z,51.15
2019-02-17T02:27:38.947Z,49.88
2019-02-17T02:28:43.374Z,53.10
2019-02-17T02:29:47.310Z,51.65
2019-02-17T02:30:51.557Z,49.90
2019-02-17T02:31:55.927Z,52.20
2019-02-17T02:32:59.801Z,48.75
2019-02-17T02:34:03.801Z,51.58
2019-02-17T02:35:08.142Z,47.95
2019-02-17T02:36:12.145Z,56.33
2019-02-17T02:37:16.422Z,50.55
2019-02-17T02:38:20.670Z,50.25
2019-02-17T02:39:24.603Z,57.03
2019-02-17T02:40:28.830Z,49.58
2019-02-17T02:41:34.959Z,53.75
2019-02-17T02:42:38.503Z,50.55
2019-02-17T02:43:42.694Z,50.63
2019-02-17T02:44:48.614Z,53.45
2019-02-17T02:45:52.943Z,53.52
2019-02-17T02:46:57.206Z,52.30
2019-02-17T02:48:01.564Z,47.75
2019-02-17T02:49:06.207Z,30.65
2019-02-17T02:50:10.984Z,27.17
2019-02-17T02:51:15.048Z,47.80
2019-02-17T02:52:19.290Z,40.15
2019-02-17T02:53:23.289Z,30.08
2019-02-17T02:54:27.480Z,28.70
2019-02-17T02:55:31.807Z,24.75
2019-02-17T02:56:36.160Z,39.48
2019-02-17T02:57:40.523Z,36.23
2019-02-17T02:58:44.650Z,36.77
2019-02-17T02:59:52.439Z,37.25
2019-02-17T03:00:54.915Z,46.00
2019-02-17T03:01:59.453Z,46.40
2019-02-17T03:03:03.427Z,36.70
2019-02-17T03:04:07.430Z,40.20
2019-02-17T03:05:11.704Z,30.88
2019-02-17T03:06:33.627Z,31.85
2019-02-17T03:07:38.139Z,41.53
2019-02-17T03:08:42.007Z,34.50
2019-02-17T03:09:46.347Z,35.88
2019-02-17T03:10:50.361Z,43.87
2019-02-17T03:11:54.552Z,50.85
2019-02-17T03:12:58.883Z,38.88
2019-02-17T03:14:02.895Z,44.75
2019-02-17T03:15:07.107Z,50.52
2019-02-17T03:16:11.044Z,41.77
2019-02-17T03:17:14.989Z,36.10
2019-02-17T03:18:19.190Z,33.48
2019-02-17T03:19:23.807Z,46.35
2019-02-17T03:20:28.155Z,38.90
2019-02-17T03:21:32.094Z,25.85
2019-02-17T03:22:36.402Z,35.43
2019-02-17T03:23:40.786Z,36.42
2019-02-17T03:24:45.128Z,39.85
2019-02-17T03:25:49.683Z,49.88
2019-02-17T03:26:53.689Z,43.10
2019-02-17T03:27:57.554Z,44.25
2019-02-17T03:29:02.072Z,36.00
2019-02-17T03:30:07.297Z,29.50
2019-02-17T03:31:11.237Z,49.63
2019-02-17T03:32:15.505Z,43.78
2019-02-17T03:33:19.487Z,38.90
2019-02-17T03:34:23.506Z,26.57
2019-02-17T03:35:27.359Z,19.25
2019-02-17T03:36:31.350Z,37.50
2019-02-17T03:37:35.208Z,34.83
2019-02-17T03:38:39.328Z,40.78
2019-02-17T03:39:43.497Z,49.25
2019-02-17T03:40:47.497Z,35.65
2019-02-17T03:41:51.351Z,42.27
2019-02-17T03:42:55.518Z,38.80
2019-02-17T03:43:59.394Z,42.40
2019-02-17T03:45:03.400Z,52.53
2019-02-17T03:46:07.540Z,43.42
2019-02-17T03:47:11.544Z,52.05
2019-02-17T03:48:15.484Z,39.63
2019-02-17T03:49:19.770Z,47.45
2019-02-17T03:50:23.694Z,40.35
2019-02-17T03:51:27.869Z,49.80
2019-02-17T03:52:32.061Z,36.15
2019-02-17T03:53:36.028Z,43.50
2019-02-17T03:54:40.531Z,32.88
2019-02-17T03:55:44.778Z,48.30
2019-02-17T03:56:48.784Z,40.43
2019-02-17T03:57:52.858Z,42.88
2019-02-17T03:58:56.798Z,48.35
2019-02-17T04:00:00.721Z,31.10
2019-02-17T04:01:04.963Z,31.48
2019-02-17T04:02:09.251Z,49.65
2019-02-17T04:03:13.318Z,44.95
2019-02-17T04:04:17.559Z,58.30
2019-02-17T04:05:22.098Z,44.88
2019-02-17T04:06:26.270Z,40.85
2019-02-17T04:07:30.484Z,62.43
2019-02-17T04:08:34.397Z,60.58
2019-02-17T04:09:38.998Z,46.75
2019-02-17T04:10:43.022Z,50.55
2019-02-17T04:11:47.074Z,58.05
2019-02-17T04:12:51.410Z,72.50
2019-02-17T04:13:55.864Z,60.63
2019-02-17T04:15:00.594Z,61.75
2019-02-17T04:16:04.947Z,63.63
2019-02-17T04:17:09.563Z,45.75
2019-02-17T04:18:13.826Z,68.37
2019-02-17T04:19:18.180Z,60.88
2019-02-17T04:20:22.811Z,46.92
2019-02-17T04:21:27.101Z,69.82
2019-02-17T04:22:31.781Z,41.65
2019-02-17T04:23:35.642Z,56.55
2019-02-17T04:24:40.054Z,54.13
2019-02-17T04:25:44.065Z,58.00
2019-02-17T04:26:48.347Z,57.33
2019-02-17T04:27:52.346Z,29.37
2019-02-17T04:28:56.550Z,55.85
2019-02-17T04:30:00.957Z,35.35
2019-02-17T04:31:04.948Z,27.48
2019-02-17T04:32:09.023Z,57.98
2019-02-17T04:33:12.977Z,70.52
2019-02-17T04:34:17.370Z,89.13
2019-02-17T04:35:21.319Z,50.70
2019-02-17T04:36:25.257Z,47.55
2019-02-17T04:37:29.574Z,72.75
2019-02-17T04:38:33.509Z,70.40
2019-02-17T04:39:37.523Z,72.45
2019-02-17T04:40:41.800Z,44.65
2019-02-17T04:41:46.092Z,67.62
2019-02-17T04:42:50.295Z,64.85
2019-02-17T04:43:54.315Z,32.88
2019-02-17T04:44:58.200Z,62.50
2019-02-17T04:46:02.504Z,40.58
2019-02-17T04:47:06.813Z,54.13
2019-02-17T04:48:10.753Z,69.30
2019-02-17T04:49:15.046Z,70.37
2019-02-17T04:50:19.066Z,35.10
2019-02-17T04:51:22.933Z,124.62
2019-02-17T04:52:26.866Z,68.50
2019-02-17T04:53:31.653Z,76.90
2019-02-17T04:54:35.587Z,91.40
2019-02-17T04:55:39.611Z,64.50
2019-02-17T04:56:43.906Z,31.23
2019-02-17T04:57:47.852Z,104.83
2019-02-17T04:58:51.788Z,43.87
2019-02-17T04:59:56.009Z,64.20
2019-02-17T05:01:00.234Z,32.78
2019-02-17T05:02:04.143Z,97.10
2019-02-17T05:03:08.479Z,61.88
2019-02-17T05:04:12.778Z,86.40
2019-02-17T05:05:16.798Z,81.02
2019-02-17T05:06:21.086Z,66.42
2019-02-17T05:07:25.098Z,159.85
2019-02-17T05:08:29.026Z,87.75
2019-02-17T05:09:33.299Z,63.13
2019-02-17T05:10:37.401Z,128.47
2019-02-17T05:11:41.383Z,97.30
2019-02-17T05:12:45.400Z,102.53
2019-02-17T05:13:49.425Z,148.38
2019-02-17T05:14:53.712Z,95.22
2019-02-17T05:15:57.754Z,97.90
2019-02-17T05:17:01.628Z,108.12
2019-02-17T05:18:05.657Z,126.87
2019-02-17T05:19:09.706Z,158.18
2019-02-17T05:20:13.732Z,138.95
2019-02-17T05:21:17.755Z,196.00
2019-02-17T05:22:22.121Z,139.70
2019-02-17T05:23:26.063Z,104.50
2019-02-17T05:24:30.266Z,114.97
2019-02-17T05:25:34.852Z,110.25
2019-02-17T05:26:39.144Z,136.55
2019-02-17T05:27:43.356Z,128.53
2019-02-17T05:28:47.372Z,100.65
2019-02-17T05:29:51.392Z,154.12
2019-02-17T05:30:55.433Z,130.97
2019-02-17T05:31:59.610Z,133.07
2019-02-17T05:33:04.486Z,129.55
2019-02-17T05:34:08.434Z,121.92
2019-02-17T05:35:12.753Z,98.95
2019-02-17T05:36:16.783Z,121.22
2019-02-17T05:37:21.412Z,172.80
2019-02-17T05:38:25.349Z,141.65
2019-02-17T05:39:29.925Z,118.95
2019-02-17T05:40:36.417Z,111.83
2019-02-17T05:41:40.393Z,164.32
2019-02-17T05:42:44.795Z,109.20
2019-02-17T05:43:48.826Z,142.40
2019-02-17T05:44:52.756Z,186.45
2019-02-17T05:45:57.163Z,133.52
2019-02-17T05:47:01.040Z,166.70
2019-02-17T05:48:05.105Z,106.37
2019-02-17T05:49:09.414Z,107.32
2019-02-17T05:50:13.660Z,85.17
2019-02-17T05:51:17.671Z,132.95
2019-02-17T05:52:21.871Z,54.33
2019-02-17T05:53:26.046Z,49.27
2019-02-17T05:54:30.410Z,65.42
2019-02-17T05:55:34.918Z,76.85
2019-02-17T05:56:38.872Z,64.53
2019-02-17T05:57:42.802Z,65.72
2019-02-17T05:58:47.315Z,66.20
2019-02-17T05:59:51.418Z,79.20
2019-02-17T06:01:03.207Z,94.03
2019-02-17T06:02:01.217Z,75.35
2019-02-17T06:03:05.473Z,111.55
2019-02-17T06:04:09.672Z,122.00
2019-02-17T06:05:13.672Z,125.70
2019-02-17T06:06:17.982Z,142.90
2019-02-17T06:07:21.944Z,87.47
2019-02-17T06:08:25.873Z,132.93
2019-02-17T06:09:30.119Z,106.47
2019-02-17T06:10:34.369Z,122.75
2019-02-17T06:11:38.236Z,107.22
2019-02-17T06:12:42.439Z,90.25
2019-02-17T06:13:46.449Z,80.15
2019-02-17T06:14:51.064Z,52.70
2019-02-17T06:15:54.982Z,89.67
2019-02-17T06:16:59.015Z,73.00
2019-02-17T06:18:03.374Z,91.53
2019-02-17T06:19:07.495Z,61.83
2019-02-17T06:20:11.702Z,69.75
2019-02-17T06:21:16.196Z,40.00
2019-02-17T06:22:20.396Z,73.75
2019-02-17T06:23:24.499Z,66.90
2019-02-17T06:24:28.675Z,83.30
2019-02-17T06:25:32.890Z,106.22
2019-02-17T06:26:36.906Z,59.33
2019-02-17T06:27:41.533Z,69.55
2019-02-17T06:28:45.390Z,56.02
2019-02-17T06:29:49.628Z,28.62
2019-02-17T06:30:53.482Z,53.45
2019-02-17T06:31:57.415Z,39.85
2019-02-17T06:33:01.565Z,65.95
2019-02-17T06:34:05.577Z,43.42
2019-02-17T06:35:09.634Z,50.58
2019-02-17T06:36:13.562Z,49.77
2019-02-17T06:37:17.808Z,65.08
2019-02-17T06:38:21.936Z,25.90
2019-02-17T06:39:26.621Z,69.32
2019-02-17T06:40:31.003Z,68.00
2019-02-17T06:41:34.872Z,70.42
2019-02-17T06:42:38.813Z,75.80
2019-02-17T06:43:43.079Z,57.10
2019-02-17T06:44:47.594Z,47.00
2019-02-17T06:45:51.903Z,55.67
2019-02-17T06:46:59.316Z,44.15
2019-02-17T06:48:03.265Z,62.90
2019-02-17T06:49:07.363Z,55.60
2019-02-17T06:50:11.582Z,42.20
2019-02-17T06:51:15.800Z,55.50
2019-02-17T06:52:20.094Z,50.38
2019-02-17T06:53:24.039Z,55.73
2019-02-17T06:54:28.202Z,62.03
2019-02-17T06:55:45.602Z,48.00
2019-02-17T06:56:59.322Z,43.80
2019-02-17T06:58:03.341Z,60.85
2019-02-17T06:59:07.551Z,49.05
2019-02-17T07:00:24.976Z,62.88
2019-02-17T07:01:29.083Z,36.63
2019-02-17T07:02:33.322Z,56.35
2019-02-17T07:03:38.076Z,62.53
2019-02-17T07:05:16.527Z,64.50
2019-02-17T07:06:27.110Z,84.83
2019-02-17T07:07:31.380Z,82.10
2019-02-17T07:08:35.322Z,62.53
2019-02-17T07:09:39.250Z,50.75
2019-02-17T07:10:43.257Z,42.62
2019-02-17T07:11:47.325Z,76.72
2019-02-17T07:12:51.237Z,74.47
2019-02-17T07:13:55.535Z,72.75
2019-02-17T07:15:00.103Z,73.00
2019-02-17T07:16:04.542Z,74.00
2019-02-17T07:17:08.717Z,90.70
2019-02-17T07:18:12.664Z,110.80
2019-02-17T07:19:16.759Z,66.02
2019-02-17T07:20:20.687Z,68.00
2019-02-17T07:21:24.870Z,72.80
2019-02-17T07:22:29.117Z,74.87
2019-02-17T07:23:33.306Z,81.57
2019-02-17T07:24:37.403Z,66.55
2019-02-17T07:25:41.650Z,76.67
2019-02-17T07:26:45.828Z,79.62
2019-02-17T07:27:49.834Z,75.03
2019-02-17T07:28:53.854Z,78.35
2019-02-17T07:29:58.026Z,63.60
2019-02-17T07:31:01.954Z,48.70
2019-02-17T07:32:05.839Z,62.15
2019-02-17T07:33:10.203Z,56.73
2019-02-17T07:34:14.238Z,49.85
2019-02-17T07:35:18.411Z,59.15
2019-02-17T07:36:22.594Z,53.63
2019-02-17T07:37:33.493Z,62.20
2019-02-17T07:38:32.373Z,51.50
2019-02-17T07:39:36.673Z,43.52
2019-02-17T07:40:40.848Z,56.65
2019-02-17T07:41:45.014Z,50.92
2019-02-17T07:42:49.292Z,48.33
2019-02-17T07:43:53.640Z,39.83
2019-02-17T07:44:57.747Z,46.85
2019-02-17T07:46:01.789Z,32.08
2019-02-17T07:47:06.366Z,38.30
2019-02-17T07:48:10.371Z,43.42
2019-02-17T07:49:14.892Z,46.13
2019-02-17T07:50:18.900Z,44.88
2019-02-17T07:51:23.203Z,41.13
2019-02-17T07:52:27.135Z,42.75
2019-02-17T07:53:31.138Z,29.70
2019-02-17T07:54:35.386Z,45.63
2019-02-17T07:55:39.608Z,44.30
2019-02-17T07:56:43.470Z,38.50
2019-02-17T07:57:47.715Z,37.28
2019-02-17T07:58:52.332Z,45.25
2019-02-17T07:59:56.635Z,47.00
2019-02-17T08:01:00.642Z,39.25
2019-02-17T08:02:04.648Z,43.50
2019-02-17T08:03:08.852Z,44.77
2019-02-17T08:04:13.354Z,39.55
2019-02-17T08:05:17.554Z,44.77
2019-02-17T08:06:21.827Z,44.83
2019-02-17T08:07:26.189Z,48.95
2019-02-17T08:08:30.596Z,49.98
2019-02-17T08:09:34.543Z,54.20
2019-02-17T08:10:38.543Z,47.33
2019-02-17T08:11:42.910Z,44.03
2019-02-17T08:12:47.199Z,44.15
2019-02-17T08:13:51.213Z,46.20
2019-02-17T08:14:55.856Z,50.35
2019-02-17T08:16:00.038Z,45.03
2019-02-17T08:17:03.960Z,28.83
2019-02-17T08:18:08.290Z,45.17
2019-02-17T08:19:12.218Z,48.45
2019-02-17T08:20:16.554Z,48.58
2019-02-17T08:21:20.404Z,49.33
2019-02-17T08:22:24.647Z,40.80
2019-02-17T08:23:29.586Z,44.27
2019-02-17T08:24:33.777Z,45.78
2019-02-17T08:25:38.299Z,46.10
2019-02-17T08:26:42.434Z,43.83
2019-02-17T08:27:46.361Z,49.98
2019-02-17T08:28:50.913Z,47.83
2019-02-17T08:29:55.250Z,37.70
2019-02-17T08:30:59.194Z,47.13
2019-02-17T08:32:03.526Z,44.63
2019-02-17T08:33:07.546Z,41.88
2019-02-17T08:34:12.446Z,48.00
2019-02-17T08:35:16.792Z,50.63
2019-02-17T08:36:20.723Z,51.53
2019-02-17T08:37:24.974Z,47.70
2019-02-17T08:38:29.142Z,47.75
2019-02-17T08:39:33.557Z,46.58
2019-02-17T08:40:37.759Z,51.15
2019-02-17T08:41:41.689Z,42.88
2019-02-17T08:42:45.939Z,36.55
2019-02-17T08:43:50.044Z,45.98
2019-02-17T08:44:54.155Z,26.70
2019-02-17T08:45:58.345Z,47.00
2019-02-17T08:47:02.353Z,46.20
2019-02-17T08:48:06.617Z,49.67
2019-02-17T08:49:10.474Z,50.95
2019-02-17T08:50:14.496Z,51.80
2019-02-17T08:51:18.438Z,44.95
2019-02-17T08:52:22.776Z,51.45
2019-02-17T08:53:26.799Z,45.25
2019-02-17T08:54:30.658Z,39.08
2019-02-17T08:55:34.542Z,42.15
2019-02-17T08:56:38.594Z,33.90
2019-02-17T08:57:42.823Z,45.65
2019-02-17T08:58:47.017Z,45.98
2019-02-17T08:59:51.131Z,43.75
2019-02-17T09:00:55.343Z,47.33
2019-02-17T09:02:06.033Z,43.30
2019-02-17T09:03:05.337Z,41.55
2019-02-17T09:04:09.192Z,48.28
2019-02-17T09:05:13.119Z,40.28
2019-02-17T09:06:17.139Z,44.73
2019-02-17T09:07:21.332Z,46.75
2019-02-17T09:08:25.759Z,53.33
2019-02-17T09:09:29.685Z,58.50
2019-02-17T09:10:33.617Z,51.63
2019-02-17T09:11:37.630Z,52.60
2019-02-17T09:12:41.810Z,42.08
2019-02-17T09:13:45.926Z,46.95
2019-02-17T09:14:50.220Z,60.58
2019-02-17T09:15:54.135Z,47.98
2019-02-17T09:16:58.165Z,47.55
2019-02-17T09:18:02.108Z,42.13
2019-02-17T09:19:06.423Z,48.85
2019-02-17T09:20:11.462Z,44.53
2019-02-17T09:21:15.471Z,43.63
2019-02-17T09:22:19.779Z,37.13
2019-02-17T09:23:24.032Z,33.42
2019-02-17T09:24:28.866Z,44.93
2019-02-17T09:25:33.194Z,48.42
2019-02-17T09:26:37.223Z,44.08
2019-02-17T09:27:41.814Z,45.60
2019-02-17T09:28:45.823Z,45.33
2019-02-17T09:29:50.194Z,44.85
2019-02-17T09:30:54.727Z,47.17
2019-02-17T09:31:59.521Z,40.70
2019-02-17T09:33:03.499Z,45.03
2019-02-17T09:34:07.509Z,43.70
2019-02-17T09:35:11.883Z,42.45
2019-02-17T09:36:16.161Z,44.45
2019-02-17T09:37:20.713Z,42.75
2019-02-17T09:38:24.938Z,46.80
2019-02-17T09:39:28.884Z,37.30
2019-02-17T09:40:33.322Z,48.40
2019-02-17T09:41:37.714Z,46.25
2019-02-17T09:42:41.982Z,41.10
2019-02-17T09:43:46.085Z,37.73
2019-02-17T09:44:50.106Z,44.93
2019-02-17T09:45:54.847Z,43.70
2019-02-17T09:46:58.998Z,43.85
2019-02-17T09:48:03.478Z,36.30
2019-02-17T09:49:08.376Z,39.23
2019-02-17T09:50:14.485Z,37.70
2019-02-17T09:51:18.921Z,43.40
2019-02-17T09:52:23.279Z,47.65
2019-02-17T09:53:27.976Z,46.42
2019-02-17T09:54:33.226Z,45.30
2019-02-17T09:55:37.253Z,31.35
2019-02-17T09:56:42.135Z,38.28
2019-02-17T09:57:46.278Z,41.50
2019-02-17T09:58:50.643Z,44.08
2019-02-17T09:59:54.610Z,54.80
2019-02-17T10:00:59.359Z,53.60
2019-02-17T10:02:03.771Z,57.13
2019-02-17T10:03:07.803Z,38.28
2019-02-17T10:04:12.147Z,56.55
2019-02-17T10:05:16.387Z,48.45
2019-02-17T10:06:20.458Z,49.60
2019-02-17T10:07:24.395Z,44.23
2019-02-17T10:08:28.423Z,45.48
2019-02-17T10:09:32.814Z,42.17
2019-02-17T10:10:36.750Z,43.08
2019-02-17T10:11:40.974Z,42.60
2019-02-17T10:12:44.988Z,36.58
2019-02-17T10:13:49.319Z,39.78
2019-02-17T10:14:53.343Z,44.27
2019-02-17T10:15:57.723Z,47.27
2019-02-17T10:17:01.672Z,45.08
2019-02-17T10:18:05.644Z,43.10
2019-02-17T10:19:09.726Z,45.70
2019-02-17T10:20:13.767Z,50.03
2019-02-17T10:21:17.774Z,49.50
2019-02-17T10:22:22.035Z,43.87
2019-02-17T10:23:26.343Z,44.33
2019-02-17T10:24:30.344Z,47.70
2019-02-17T10:25:34.863Z,48.60
2019-02-17T10:26:39.071Z,36.95
2019-02-17T10:27:43.012Z,58.60
2019-02-17T10:28:47.287Z,45.90
2019-02-17T10:29:51.692Z,45.35
2019-02-17T10:30:55.951Z,50.00
2019-02-17T10:31:59.965Z,52.55
2019-02-17T10:33:03.976Z,53.05
2019-02-17T10:34:08.001Z,44.60
2019-02-17T10:35:12.317Z,47.50
2019-02-17T10:36:16.670Z,48.35
2019-02-17T10:37:20.933Z,49.15
2019-02-17T10:38:24.877Z,47.88
2019-02-17T10:39:29.241Z,55.52
2019-02-17T10:40:33.436Z,59.58
2019-02-17T10:41:37.979Z,48.08
2019-02-17T10:42:41.947Z,56.10
2019-02-17T10:43:46.339Z,52.38
2019-02-17T10:44:50.573Z,54.77
2019-02-17T10:45:54.977Z,45.43
2019-02-17T10:46:58.975Z,47.45
2019-02-17T10:48:03.590Z,48.78
2019-02-17T10:49:07.674Z,42.43
2019-02-17T10:50:12.108Z,47.23
2019-02-17T10:51:16.111Z,44.98
2019-02-17T10:52:20.465Z,43.52
2019-02-17T10:53:24.662Z,44.75
2019-02-17T10:54:28.850Z,40.65
2019-02-17T10:55:33.023Z,42.05
2019-02-17T10:56:37.028Z,41.60
2019-02-17T10:57:41.201Z,44.13
2019-02-17T10:58:45.212Z,43.70
2019-02-17T10:59:49.162Z,39.38
2019-02-17T11:00:53.485Z,42.03
2019-02-17T11:01:57.735Z,38.85
2019-02-17T11:03:07.682Z,41.50
2019-02-17T11:04:12.058Z,41.70
2019-02-17T11:05:16.376Z,47.33
2019-02-17T11:06:20.378Z,44.38
2019-02-17T11:07:24.626Z,47.88
2019-02-17T11:08:28.550Z,44.53
2019-02-17T11:09:33.131Z,37.80
2019-02-17T11:10:37.644Z,40.12
2019-02-17T11:11:41.820Z,39.90
2019-02-17T11:12:45.830Z,43.15
2019-02-17T11:13:49.838Z,45.75
2019-02-17T11:14:54.362Z,39.38
2019-02-17T11:15:58.978Z,33.95
2019-02-17T11:17:03.051Z,35.15
2019-02-17T11:18:07.304Z,40.85
2019-02-17T11:19:11.363Z,36.03
2019-02-17T11:20:15.724Z,41.92
2019-02-17T11:21:20.007Z,35.90
2019-02-17T11:22:24.027Z,34.55
2019-02-17T11:23:28.216Z,30.00
2019-02-17T11:24:32.154Z,38.88
2019-02-17T11:25:36.175Z,37.40
2019-02-17T11:26:40.117Z,35.73
2019-02-17T11:27:44.730Z,37.40
2019-02-17T11:28:49.040Z,36.00
2019-02-17T11:29:53.406Z,43.23
2019-02-17T11:30:57.439Z,39.73
2019-02-17T11:32:01.447Z,37.93
2019-02-17T11:33:05.475Z,43.25
2019-02-17T11:34:09.690Z,47.20
2019-02-17T11:35:13.893Z,44.98
2019-02-17T11:36:17.945Z,31.42
2019-02-17T11:37:22.273Z,46.85
2019-02-17T11:38:26.314Z,42.60
2019-02-17T11:39:30.367Z,38.70
2019-02-17T11:40:34.707Z,35.95
2019-02-17T11:41:39.098Z,35.85
2019-02-17T11:42:43.414Z,36.00
2019-02-17T11:43:47.508Z,32.28
2019-02-17T11:44:51.582Z,37.53
2019-02-17T11:45:56.621Z,30.68
2019-02-17T11:47:00.937Z,38.05
2019-02-17T11:48:05.360Z,35.73
2019-02-17T11:49:09.686Z,38.70
2019-02-17T11:50:15.661Z,34.73
2019-02-17T11:51:19.458Z,35.28
2019-02-17T11:52:23.519Z,35.85
2019-02-17T11:53:27.565Z,31.42
2019-02-17T11:54:32.332Z,28.30
2019-02-17T11:55:37.163Z,33.85
2019-02-17T11:56:41.879Z,37.78
2019-02-17T11:57:46.243Z,36.95
2019-02-17T11:58:50.597Z,35.60
2019-02-17T11:59:55.010Z,25.37
2019-02-17T12:00:59.085Z,38.48
2019-02-17T12:02:03.826Z,35.92
2019-02-17T12:03:08.561Z,40.38
2019-02-17T12:04:12.626Z,38.75
2019-02-17T12:05:16.955Z,35.80
2019-02-17T12:06:20.952Z,29.82
2019-02-17T12:07:25.280Z,36.40
2019-02-17T12:08:29.347Z,36.60
2019-02-17T12:09:33.797Z,35.50
2019-02-17T12:10:38.201Z,34.78
2019-02-17T12:11:42.645Z,32.28
2019-02-17T12:12:47.330Z,33.55
2019-02-17T12:13:51.724Z,34.08
2019-02-17T12:14:56.138Z,35.98
2019-02-17T12:16:00.184Z,35.08
2019-02-17T12:17:04.656Z,34.58
2019-02-17T12:18:09.078Z,35.00
2019-02-17T12:19:13.111Z,33.48
2019-02-17T12:20:41.154Z,35.68
2019-02-17T12:21:50.175Z,33.55
2019-02-17T12:22:59.644Z,36.80
2019-02-17T12:24:31.965Z,36.85
2019-02-17T12:25:49.658Z,33.73
2019-02-17T12:26:59.437Z,34.98
2019-02-17T12:28:07.792Z,36.90
2019-02-17T12:29:19.452Z,34.13
2019-02-17T12:30:24.975Z,29.00
2019-02-17T12:31:33.490Z,34.83
2019-02-17T12:32:37.551Z,34.40
2019-02-17T12:33:41.627Z,36.80
2019-02-17T12:34:45.697Z,34.60
2019-02-17T12:35:49.742Z,38.58
2019-02-17T12:36:53.808Z,35.60
2019-02-17T12:37:58.112Z,34.23
2019-02-17T12:39:02.174Z,32.40
2019-02-17T12:40:09.290Z,30.43
2019-02-17T12:41:13.313Z,34.08
2019-02-17T12:42:17.354Z,31.77
2019-02-17T12:43:21.287Z,35.05
2019-02-17T12:44:25.313Z,38.23
2019-02-17T12:45:29.632Z,31.87
2019-02-17T12:46:33.636Z,33.18
2019-02-17T12:47:37.835Z,34.80
2019-02-17T12:48:41.956Z,35.75
2019-02-17T12:49:46.155Z,34.65
2019-02-17T12:50:50.089Z,34.65
2019-02-17T12:51:54.673Z,35.73
2019-02-17T12:52:58.699Z,32.00
2019-02-17T12:54:02.707Z,32.78
2019-02-17T12:55:07.185Z,31.73
2019-02-17T12:56:11.488Z,33.10
2019-02-17T12:57:15.423Z,36.13
2019-02-17T12:58:29.395Z,37.88
2019-02-17T12:59:25.733Z,32.95
2019-02-17T13:00:30.042Z,34.45
2019-02-17T13:01:34.224Z,34.33
2019-02-17T13:02:38.408Z,37.70
2019-02-17T13:03:42.968Z,34.90
2019-02-17T13:04:47.172Z,36.50
2019-02-17T13:05:51.382Z,33.58
2019-02-17T13:06:55.584Z,33.85
2019-02-17T13:07:59.892Z,32.60
2019-02-17T13:09:05.572Z,32.60
2019-02-17T13:10:10.564Z,31.05
2019-02-17T13:11:14.764Z,31.87
2019-02-17T13:12:19.173Z,39.53
2019-02-17T13:13:23.481Z,33.63
2019-02-17T13:14:27.842Z,31.90
2019-02-17T13:15:32.315Z,34.27
2019-02-17T13:16:36.259Z,34.27
2019-02-17T13:17:40.269Z,35.38
2019-02-17T13:18:44.148Z,35.17
2019-02-17T13:19:48.092Z,36.17
2019-02-17T13:20:52.104Z,35.35
2019-02-17T13:21:56.125Z,34.70
2019-02-17T13:23:00.412Z,33.65
2019-02-17T13:24:04.682Z,34.92
2019-02-17T13:25:09.976Z,33.67
2019-02-17T13:26:14.263Z,34.20
2019-02-17T13:27:18.275Z,38.38
2019-02-17T13:28:22.565Z,33.90
2019-02-17T13:29:26.512Z,32.08
2019-02-17T13:30:30.790Z,30.20
2019-02-17T13:31:34.730Z,32.33
2019-02-17T13:32:39.010Z,32.67
2019-02-17T13:33:43.027Z,30.82
2019-02-17T13:34:48.464Z,34.73
2019-02-17T13:35:52.381Z,36.55
2019-02-17T13:36:56.427Z,35.38
2019-02-17T13:38:00.696Z,34.40
2019-02-17T13:39:06.714Z,36.45
2019-02-17T13:40:11.754Z,30.25
2019-02-17T13:41:16.105Z,32.20
2019-02-17T13:42:20.418Z,31.33
2019-02-17T13:43:24.635Z,30.75
2019-02-17T13:44:28.825Z,32.67
2019-02-17T13:45:32.770Z,32.10
2019-02-17T13:46:37.201Z,32.78
2019-02-17T13:47:41.476Z,35.10
2019-02-17T13:48:45.528Z,33.75
2019-02-17T13:49:49.788Z,36.75